EGVP - Middle Wallop
Distance from station: E 5mi, 14km
Updated: 06/19/2018 6:50am
Mostly Cloudy
Mostly Cloudy
 Wind from SSW
Wind: SSW 10 mph , 17 km/h
Temperature: 72°F , 22°C
Dew Point: 61°F , 16°C
Humidity: 69%
Barometer: 30.21 inHg , 1023 hPa
Clouds: Mostly Cloudy
Visibility: 6 miles , 10 km
Cloud details: Few Clouds 1800 ft
Mostly Cloudy 3800 ft
2018/06/19 13:50 EGVP 191350Z 20009KT 9999 FEW018 BKN038 22/16 Q1023 BLU TEMPO SCT022 WHT